createdAt,value
2019-02-06T00:01:26.862Z,28.30
2019-02-06T00:03:56.963Z,27.57
2019-02-06T00:06:27.058Z,33.83
2019-02-06T00:08:57.434Z,34.73
2019-02-06T00:11:29.134Z,40.10
2019-02-06T00:13:59.305Z,31.27
2019-02-06T00:16:30.377Z,33.93
2019-02-06T00:19:00.490Z,34.27
2019-02-06T00:21:30.474Z,31.27
2019-02-06T00:24:00.530Z,36.60
2019-02-06T00:26:30.551Z,32.90
2019-02-06T00:29:00.964Z,27.07
2019-02-06T00:31:31.006Z,24.63
2019-02-06T00:34:00.984Z,24.53
2019-02-06T00:36:31.191Z,25.23
2019-02-06T00:39:01.404Z,23.17
2019-02-06T00:41:31.410Z,33.97
2019-02-06T00:44:01.560Z,25.73
2019-02-06T00:46:31.788Z,26.07
2019-02-06T00:49:02.102Z,28.33
2019-02-06T00:51:32.458Z,28.60
2019-02-06T00:54:02.397Z,24.30
2019-02-06T00:56:32.643Z,26.77
2019-02-06T00:59:03.655Z,31.57
2019-02-06T01:01:33.626Z,26.73
2019-02-06T01:04:03.854Z,25.87
2019-02-06T01:06:34.270Z,22.80
2019-02-06T01:09:08.023Z,25.63
2019-02-06T01:11:38.183Z,24.40
2019-02-06T01:14:08.519Z,24.67
2019-02-06T01:16:38.507Z,25.90
2019-02-06T01:19:09.102Z,23.93
2019-02-06T01:21:39.503Z,24.10
2019-02-06T01:24:09.540Z,25.03
2019-02-06T01:26:39.623Z,25.13
2019-02-06T01:29:09.743Z,24.57
2019-02-06T01:31:39.797Z,28.60
2019-02-06T01:34:10.038Z,34.63
2019-02-06T01:36:40.176Z,34.07
2019-02-06T01:39:13.052Z,29.07
2019-02-06T01:41:43.107Z,28.63
2019-02-06T01:44:13.047Z,28.07
2019-02-06T01:46:43.055Z,25.63
2019-02-06T01:49:13.004Z,27.10
2019-02-06T01:51:43.540Z,31.97
2019-02-06T01:54:13.883Z,40.27
2019-02-06T01:56:44.708Z,43.37
2019-02-06T01:59:15.057Z,41.33
2019-02-06T02:01:45.565Z,31.77
2019-02-06T02:04:15.660Z,27.57
2019-02-06T02:06:45.738Z,31.93
2019-02-06T02:09:20.326Z,24.40
2019-02-06T02:11:50.707Z,27.47
2019-02-06T02:14:20.888Z,23.53
2019-02-06T02:16:51.187Z,27.40
2019-02-06T02:19:21.388Z,25.37
2019-02-06T02:21:51.632Z,23.60
2019-02-06T02:24:22.035Z,25.47
2019-02-06T02:26:52.143Z,29.43
2019-02-06T02:29:22.450Z,33.50
2019-02-06T02:31:53.103Z,34.77
2019-02-06T02:34:23.699Z,26.63
2019-02-06T02:36:54.081Z,23.60
2019-02-06T02:39:24.332Z,28.40
2019-02-06T02:41:54.410Z,27.40
2019-02-06T02:44:24.751Z,38.00
2019-02-06T02:46:54.898Z,42.33
2019-02-06T02:49:24.877Z,34.23
2019-02-06T02:51:54.798Z,37.87
2019-02-06T02:54:24.750Z,27.40
2019-02-06T02:56:54.729Z,27.07
2019-02-06T02:59:24.785Z,25.43
2019-02-06T03:02:01.962Z,27.30
2019-02-06T03:04:36.352Z,25.80
2019-02-06T03:07:06.414Z,24.43
2019-02-06T03:09:36.691Z,25.77
2019-02-06T03:12:06.850Z,29.67
2019-02-06T03:14:36.759Z,25.57
2019-02-06T03:17:07.009Z,28.13
2019-02-06T03:19:37.180Z,29.33
2019-02-06T03:22:07.898Z,31.80
2019-02-06T03:24:38.616Z,32.63
2019-02-06T03:27:08.802Z,28.23
2019-02-06T03:29:39.206Z,30.53
2019-02-06T03:32:09.728Z,26.07
2019-02-06T03:34:39.661Z,23.20
2019-02-06T03:37:09.680Z,24.30
2019-02-06T03:39:39.926Z,24.40
2019-02-06T03:42:09.982Z,23.50
2019-02-06T03:44:40.320Z,27.63
2019-02-06T03:47:10.457Z,28.63
2019-02-06T03:49:42.760Z,26.67
2019-02-06T03:52:12.319Z,28.30
2019-02-06T03:54:42.256Z,29.10
2019-02-06T03:57:12.218Z,33.30
2019-02-06T03:59:42.235Z,29.50
2019-02-06T04:02:12.469Z,27.23
2019-02-06T04:04:42.583Z,36.07
2019-02-06T04:07:13.073Z,34.87
2019-02-06T04:09:43.068Z,33.10
2019-02-06T04:12:13.089Z,32.37
2019-02-06T04:14:43.013Z,28.93
2019-02-06T04:17:13.375Z,33.43
2019-02-06T04:19:43.459Z,30.53
2019-02-06T04:22:13.550Z,25.80
2019-02-06T04:24:43.820Z,24.10
2019-02-06T04:27:14.591Z,21.67
2019-02-06T04:29:44.960Z,19.87
2019-02-06T04:32:15.379Z,21.63
2019-02-06T04:34:45.628Z,23.47
2019-02-06T04:37:16.032Z,27.50
2019-02-06T04:39:45.904Z,29.73
2019-02-06T04:42:15.856Z,27.83
2019-02-06T04:44:45.844Z,31.10
2019-02-06T04:47:16.393Z,28.73
2019-02-06T04:49:46.690Z,31.23
2019-02-06T04:52:17.729Z,34.97
2019-02-06T04:54:47.652Z,31.17
2019-02-06T04:57:17.640Z,34.50
2019-02-06T04:59:47.790Z,30.80
2019-02-06T05:02:17.868Z,35.10
2019-02-06T05:04:47.978Z,37.67
2019-02-06T05:07:19.601Z,31.57
2019-02-06T05:09:49.843Z,35.77
2019-02-06T05:12:20.137Z,39.37
2019-02-06T05:14:50.299Z,31.10
2019-02-06T05:17:20.365Z,32.83
2019-02-06T05:19:50.664Z,33.57
2019-02-06T05:22:20.761Z,32.77
2019-02-06T05:24:50.882Z,31.53
2019-02-06T05:27:21.038Z,34.27
2019-02-06T05:29:51.438Z,32.83
2019-02-06T05:32:21.964Z,38.40
2019-02-06T05:34:52.372Z,36.50
2019-02-06T05:37:31.713Z,32.27
2019-02-06T05:39:54.236Z,30.50
2019-02-06T05:42:24.224Z,32.63
2019-02-06T05:44:54.428Z,37.27
2019-02-06T05:47:24.973Z,32.07
2019-02-06T05:49:56.569Z,31.97
2019-02-06T05:52:26.839Z,32.13
2019-02-06T05:54:58.171Z,27.63
2019-02-06T05:57:28.514Z,28.97
2019-02-06T05:59:59.266Z,25.30
2019-02-06T06:02:29.479Z,26.47
2019-02-06T06:05:00.018Z,23.17
2019-02-06T06:07:30.916Z,23.93
2019-02-06T06:10:01.171Z,32.13
2019-02-06T06:12:31.216Z,22.80
2019-02-06T06:15:01.707Z,28.03
2019-02-06T06:17:32.019Z,27.67
2019-02-06T06:20:02.355Z,29.00
2019-02-06T06:22:32.273Z,25.40
2019-02-06T06:25:02.353Z,25.80
2019-02-06T06:27:32.441Z,25.70
2019-02-06T06:30:02.538Z,24.30
2019-02-06T06:32:33.058Z,31.63
2019-02-06T06:35:03.232Z,29.10
2019-02-06T06:37:33.303Z,30.57
2019-02-06T06:40:14.762Z,30.70
2019-02-06T06:42:45.230Z,34.57
2019-02-06T06:45:18.002Z,38.00
2019-02-06T06:47:48.044Z,31.40
2019-02-06T06:50:20.591Z,39.00
2019-02-06T06:52:50.954Z,38.13
2019-02-06T06:55:21.262Z,47.23
2019-02-06T06:57:51.853Z,46.77
2019-02-06T07:00:27.619Z,40.20
2019-02-06T07:02:57.978Z,38.97
2019-02-06T07:05:28.444Z,37.77
2019-02-06T07:08:09.141Z,41.33
2019-02-06T07:10:30.741Z,36.27
2019-02-06T07:13:01.059Z,41.83
2019-02-06T07:15:42.917Z,45.13
2019-02-06T07:18:13.291Z,47.50
2019-02-06T07:20:44.174Z,56.03
2019-02-06T07:23:14.411Z,57.07
2019-02-06T07:25:44.723Z,50.83
2019-02-06T07:28:15.036Z,42.67
2019-02-06T07:30:45.291Z,42.97
2019-02-06T07:33:15.520Z,55.77
2019-02-06T07:35:45.598Z,66.30
2019-02-06T07:38:23.889Z,51.60
2019-02-06T07:40:48.319Z,50.20
2019-02-06T07:43:18.604Z,58.23
2019-02-06T07:45:48.572Z,48.70
2019-02-06T07:48:18.749Z,45.50
2019-02-06T07:50:48.821Z,43.60
2019-02-06T07:53:19.274Z,40.70
2019-02-06T07:55:49.646Z,47.77
2019-02-06T07:58:19.736Z,49.87
2019-02-06T08:00:50.316Z,51.60
2019-02-06T08:03:21.450Z,43.87
2019-02-06T08:05:52.168Z,42.10
2019-02-06T08:08:22.096Z,38.87
2019-02-06T08:10:52.225Z,35.17
2019-02-06T08:13:22.231Z,36.00
2019-02-06T08:15:52.595Z,36.97
2019-02-06T08:18:22.934Z,31.43
2019-02-06T08:20:53.171Z,30.17
2019-02-06T08:23:23.280Z,33.93
2019-02-06T08:25:54.825Z,29.50
2019-02-06T08:28:25.264Z,30.33
2019-02-06T08:30:56.088Z,26.63
2019-02-06T08:33:26.279Z,26.90
2019-02-06T08:35:56.341Z,27.37
2019-02-06T08:38:26.476Z,28.80
2019-02-06T08:40:56.503Z,25.80
2019-02-06T08:43:26.617Z,27.97
2019-02-06T08:45:56.770Z,24.67
2019-02-06T08:48:27.156Z,26.40
2019-02-06T08:50:57.317Z,24.13
2019-02-06T08:53:39.714Z,23.87
2019-02-06T08:56:11.781Z,23.47
2019-02-06T08:58:41.747Z,21.87
2019-02-06T09:01:11.823Z,23.20
2019-02-06T09:03:41.967Z,21.07
2019-02-06T09:06:12.120Z,22.53
2019-02-06T09:08:42.286Z,23.90
2019-02-06T09:11:15.748Z,22.00
2019-02-06T09:13:45.794Z,21.63
2019-02-06T09:16:15.785Z,21.50
2019-02-06T09:18:46.052Z,24.30
2019-02-06T09:21:16.172Z,24.77
2019-02-06T09:23:46.039Z,22.80
2019-02-06T09:26:16.137Z,23.63
2019-02-06T09:28:46.266Z,24.53
2019-02-06T09:31:16.884Z,25.60
2019-02-06T09:33:46.887Z,23.43
2019-02-06T09:36:17.134Z,24.00
2019-02-06T09:38:47.724Z,25.27
2019-02-06T09:41:17.865Z,24.70
2019-02-06T09:43:47.987Z,22.67
2019-02-06T09:46:18.437Z,23.83
2019-02-06T09:48:49.359Z,23.70
2019-02-06T09:51:19.471Z,21.87
2019-02-06T09:53:49.968Z,25.83
2019-02-06T09:56:20.028Z,23.23
2019-02-06T09:58:50.339Z,27.17
2019-02-06T10:01:21.528Z,26.10
2019-02-06T10:03:52.000Z,23.87
2019-02-06T10:06:22.397Z,24.30
2019-02-06T10:08:52.843Z,26.83
2019-02-06T10:11:22.866Z,25.13
2019-02-06T10:13:52.957Z,28.97
2019-02-06T10:16:22.917Z,25.83
2019-02-06T10:18:53.002Z,24.50
2019-02-06T10:21:23.128Z,26.27
2019-02-06T10:23:54.001Z,28.10
2019-02-06T10:26:24.241Z,30.33
2019-02-06T10:28:55.642Z,23.90
2019-02-06T10:31:25.901Z,26.47
2019-02-06T10:33:56.248Z,25.90
2019-02-06T10:36:26.545Z,23.43
2019-02-06T10:38:56.432Z,26.93
2019-02-06T10:41:26.976Z,25.27
2019-02-06T10:43:57.071Z,23.00
2019-02-06T10:46:27.051Z,23.17
2019-02-06T10:48:57.479Z,27.67
2019-02-06T10:51:27.803Z,25.47
2019-02-06T10:53:58.300Z,26.77
2019-02-06T10:56:28.579Z,24.33
2019-02-06T10:58:58.909Z,24.70
2019-02-06T11:01:30.536Z,22.60
2019-02-06T11:04:00.735Z,24.83
2019-02-06T11:06:31.313Z,24.53
2019-02-06T11:09:01.411Z,25.67
2019-02-06T11:11:31.499Z,24.47
2019-02-06T11:14:01.797Z,29.13
2019-02-06T11:16:32.108Z,24.33
2019-02-06T11:19:02.723Z,26.67
2019-02-06T11:21:32.869Z,27.47
2019-02-06T11:24:03.094Z,22.77
2019-02-06T11:26:33.197Z,27.93
2019-02-06T11:29:03.392Z,24.43
2019-02-06T11:31:33.520Z,26.03
2019-02-06T11:34:05.622Z,27.03
2019-02-06T11:36:35.811Z,25.87
2019-02-06T11:39:12.667Z,26.50
2019-02-06T11:41:42.697Z,25.43
2019-02-06T11:44:13.294Z,27.53
2019-02-06T11:46:44.010Z,25.60
2019-02-06T11:49:15.282Z,26.27
2019-02-06T11:51:46.008Z,27.30
2019-02-06T11:54:16.166Z,25.63
2019-02-06T11:56:46.528Z,26.00
2019-02-06T11:59:17.119Z,27.30
2019-02-06T12:01:51.799Z,28.87
2019-02-06T12:04:22.299Z,28.03
2019-02-06T12:06:52.482Z,29.20
2019-02-06T12:09:22.897Z,28.13
2019-02-06T12:11:53.483Z,27.53
2019-02-06T12:14:24.069Z,28.00
2019-02-06T12:16:54.349Z,30.07
2019-02-06T12:19:25.011Z,26.33
2019-02-06T12:21:55.129Z,30.77
2019-02-06T12:24:25.314Z,29.10
2019-02-06T12:26:55.929Z,30.70
2019-02-06T12:29:26.397Z,32.87
2019-02-06T12:31:56.378Z,30.40
2019-02-06T12:34:26.638Z,30.07
2019-02-06T12:36:56.875Z,29.97
2019-02-06T12:39:27.127Z,28.50
2019-02-06T12:41:57.721Z,28.90
2019-02-06T12:44:28.426Z,28.13
2019-02-06T12:46:59.427Z,30.53
2019-02-06T12:49:29.752Z,31.57
2019-02-06T12:51:59.989Z,30.47
2019-02-06T12:54:30.238Z,30.23
2019-02-06T12:57:00.323Z,29.53
2019-02-06T12:59:30.334Z,31.87
2019-02-06T13:02:00.479Z,29.17
2019-02-06T13:04:30.702Z,28.13
2019-02-06T13:07:01.287Z,28.37
2019-02-06T13:09:32.244Z,30.00
2019-02-06T13:12:02.543Z,28.30
2019-02-06T13:14:32.551Z,31.47
2019-02-06T13:17:02.623Z,26.33
2019-02-06T13:19:32.776Z,30.93
2019-02-06T13:22:03.419Z,30.40
2019-02-06T13:24:33.807Z,30.33
2019-02-06T13:27:04.768Z,28.67
2019-02-06T13:29:34.937Z,31.53
2019-02-06T13:32:05.283Z,30.00
2019-02-06T13:34:35.724Z,31.70
2019-02-06T13:37:06.266Z,32.13
2019-02-06T13:39:36.379Z,27.87
2019-02-06T13:42:06.786Z,30.83
2019-02-06T13:44:37.086Z,31.00
2019-02-06T13:47:07.171Z,29.67
2019-02-06T13:49:37.486Z,29.90
2019-02-06T13:52:08.028Z,32.23
2019-02-06T13:54:38.068Z,28.37
2019-02-06T13:57:09.590Z,29.80
2019-02-06T13:59:39.922Z,27.37
2019-02-06T14:02:10.072Z,28.60
2019-02-06T14:04:40.114Z,30.50
2019-02-06T14:07:10.290Z,29.47
2019-02-06T14:09:41.012Z,28.80
2019-02-06T14:12:13.538Z,30.13
2019-02-06T14:14:43.562Z,30.40
2019-02-06T14:17:13.681Z,32.27
2019-02-06T14:19:44.151Z,28.47
2019-02-06T14:22:14.820Z,29.70
2019-02-06T14:25:09.345Z,30.93
2019-02-06T14:28:12.414Z,32.27
2019-02-06T14:31:30.596Z,28.67
2019-02-06T14:34:27.149Z,33.00
2019-02-06T14:37:39.905Z,31.13
2019-02-06T14:40:32.236Z,29.87
2019-02-06T14:43:27.699Z,36.20
2019-02-06T14:46:33.665Z,30.23
2019-02-06T14:49:43.966Z,30.37
2019-02-06T14:52:59.179Z,32.90
2019-02-06T14:55:58.096Z,27.87
2019-02-06T14:59:10.694Z,30.70
2019-02-06T15:02:15.679Z,32.47
2019-02-06T15:05:14.867Z,35.03
2019-02-06T15:08:10.744Z,31.97
2019-02-06T15:11:03.039Z,30.83
2019-02-06T15:14:14.791Z,33.87
2019-02-06T15:17:32.149Z,31.97
2019-02-06T15:20:26.696Z,33.40
2019-02-06T15:23:32.574Z,32.43
2019-02-06T15:26:30.525Z,32.30
2019-02-06T15:29:41.567Z,33.50
2019-02-06T15:33:00.375Z,34.73
2019-02-06T15:36:11.166Z,30.33
2019-02-06T15:39:13.268Z,32.00
2019-02-06T15:42:20.554Z,35.27
2019-02-06T15:45:19.460Z,31.77
2019-02-06T15:48:11.450Z,31.63
2019-02-06T15:51:04.769Z,33.97
2019-02-06T15:54:00.146Z,36.73
2019-02-06T15:57:11.634Z,35.10
2019-02-06T16:00:12.119Z,31.07
2019-02-06T16:03:28.430Z,35.50
2019-02-06T16:06:40.573Z,36.03
2019-02-06T16:09:49.895Z,35.67
2019-02-06T16:13:11.454Z,33.50
2019-02-06T16:16:19.165Z,34.93
2019-02-06T16:19:21.125Z,32.33
2019-02-06T16:22:04.121Z,35.40
2019-02-06T16:25:14.644Z,36.53
2019-02-06T16:28:03.419Z,34.03
2019-02-06T16:31:21.033Z,38.20
2019-02-06T16:34:37.253Z,38.63
2019-02-06T16:37:52.318Z,45.17
2019-02-06T16:40:57.639Z,51.20
2019-02-06T16:44:14.697Z,36.00
2019-02-06T16:47:47.919Z,33.10
2019-02-06T16:50:29.393Z,33.90
2019-02-06T16:53:49.252Z,36.33
2019-02-06T16:56:31.931Z,31.77
2019-02-06T16:59:24.494Z,33.70
2019-02-06T17:02:38.188Z,36.10
2019-02-06T17:05:48.209Z,35.27
2019-02-06T17:08:49.409Z,40.87
2019-02-06T17:11:45.937Z,39.17
2019-02-06T17:14:55.583Z,35.87
2019-02-06T17:18:03.570Z,34.73
2019-02-06T17:21:10.308Z,35.53
2019-02-06T17:24:16.467Z,37.10
2019-02-06T17:27:00.657Z,33.80
2019-02-06T17:30:06.305Z,35.27
2019-02-06T17:33:00.650Z,34.30
2019-02-06T17:35:45.256Z,37.43
2019-02-06T17:38:40.936Z,35.23
2019-02-06T17:41:50.561Z,38.27
2019-02-06T17:44:54.881Z,35.70
2019-02-06T17:47:35.621Z,37.47
2019-02-06T17:51:02.764Z,39.10
2019-02-06T17:53:58.274Z,37.07
2019-02-06T17:56:28.428Z,34.03
2019-02-06T17:58:58.845Z,38.17
2019-02-06T18:01:44.435Z,38.50
2019-02-06T18:04:29.763Z,40.93
2019-02-06T18:07:00.006Z,36.53
2019-02-06T18:09:31.689Z,35.83
2019-02-06T18:12:01.962Z,36.53
2019-02-06T18:14:32.364Z,38.47
2019-02-06T18:17:04.455Z,35.93
2019-02-06T18:19:39.436Z,37.63
2019-02-06T18:22:09.993Z,36.67
2019-02-06T18:24:40.385Z,37.13
2019-02-06T18:27:12.486Z,37.93
2019-02-06T18:29:42.607Z,35.30
2019-02-06T18:32:12.519Z,37.97
2019-02-06T18:34:43.080Z,38.50
2019-02-06T18:37:13.149Z,40.73
2019-02-06T18:39:43.198Z,38.33
2019-02-06T18:42:13.149Z,36.87
2019-02-06T18:44:43.387Z,38.07
2019-02-06T18:47:13.435Z,35.93
2019-02-06T18:49:43.492Z,38.80
2019-02-06T18:52:20.475Z,41.17
2019-02-06T18:54:46.323Z,36.07
2019-02-06T18:57:16.572Z,39.90
2019-02-06T18:59:46.876Z,41.93
2019-02-06T19:02:17.226Z,42.00
2019-02-06T19:04:47.462Z,37.37
2019-02-06T19:07:17.561Z,39.53
2019-02-06T19:09:47.513Z,44.13
2019-02-06T19:12:17.592Z,41.40
2019-02-06T19:14:47.934Z,42.67
2019-02-06T19:17:18.053Z,42.33
2019-02-06T19:19:48.465Z,42.37
2019-02-06T19:22:18.799Z,49.63
2019-02-06T19:24:49.320Z,55.33
2019-02-06T19:27:19.555Z,72.80
2019-02-06T19:29:50.018Z,48.97
2019-02-06T19:32:20.118Z,46.47
2019-02-06T19:34:51.684Z,40.60
2019-02-06T19:37:21.797Z,40.20
2019-02-06T19:39:52.460Z,40.40
2019-02-06T19:42:22.806Z,40.70
2019-02-06T19:44:52.872Z,40.17
2019-02-06T19:47:23.502Z,46.57
2019-02-06T19:49:53.735Z,48.93
2019-02-06T19:52:24.123Z,44.97
2019-02-06T19:54:55.214Z,44.80
2019-02-06T19:57:26.115Z,40.37
2019-02-06T19:59:56.590Z,39.57
2019-02-06T20:02:26.779Z,40.03
2019-02-06T20:04:57.073Z,39.10
2019-02-06T20:07:27.485Z,38.03
2019-02-06T20:09:58.016Z,40.00
2019-02-06T20:12:28.530Z,40.23
2019-02-06T20:14:59.266Z,43.33
2019-02-06T20:17:29.463Z,43.30
2019-02-06T20:19:59.699Z,41.63
2019-02-06T20:22:30.061Z,41.77
2019-02-06T20:25:00.391Z,36.77
2019-02-06T20:27:30.911Z,37.47
2019-02-06T20:30:00.984Z,38.27
2019-02-06T20:32:30.902Z,36.60
2019-02-06T20:35:00.994Z,37.07
2019-02-06T20:37:30.951Z,36.53
2019-02-06T20:40:00.936Z,39.40
2019-02-06T20:42:31.061Z,37.23
2019-02-06T20:45:01.347Z,37.07
2019-02-06T20:47:33.706Z,36.47
2019-02-06T20:50:05.052Z,32.97
2019-02-06T20:52:35.194Z,36.60
2019-02-06T20:55:06.516Z,35.20
2019-02-06T20:57:36.860Z,36.93
2019-02-06T21:00:12.057Z,34.67
2019-02-06T21:02:42.133Z,40.43
2019-02-06T21:05:12.921Z,38.07
2019-02-06T21:07:46.060Z,35.23
2019-02-06T21:10:20.608Z,36.43
2019-02-06T21:12:50.824Z,37.47
2019-02-06T21:15:20.923Z,32.63
2019-02-06T21:17:51.288Z,32.70
2019-02-06T21:20:22.235Z,33.47
2019-02-06T21:22:52.472Z,33.70
2019-02-06T21:25:23.216Z,33.67
2019-02-06T21:27:53.325Z,32.80
2019-02-06T21:30:25.994Z,29.80
2019-02-06T21:32:56.533Z,30.20
2019-02-06T21:35:26.623Z,31.53
2019-02-06T21:37:57.191Z,34.37
2019-02-06T21:40:29.218Z,38.17
2019-02-06T21:42:59.467Z,35.30
2019-02-06T21:45:29.842Z,38.47
2019-02-06T21:47:59.708Z,39.57
2019-02-06T21:50:30.414Z,36.67
2019-02-06T21:53:00.787Z,39.57
2019-02-06T21:55:31.032Z,38.97
2019-02-06T21:58:01.159Z,38.13
2019-02-06T22:00:33.822Z,38.47
2019-02-06T22:03:04.708Z,38.67
2019-02-06T22:05:35.119Z,36.47
2019-02-06T22:08:05.656Z,36.00
2019-02-06T22:10:35.695Z,33.93
2019-02-06T22:13:06.282Z,36.87
2019-02-06T22:15:36.376Z,37.70
2019-02-06T22:18:06.987Z,38.00
2019-02-06T22:20:36.901Z,42.77
2019-02-06T22:23:06.886Z,40.50
2019-02-06T22:25:36.917Z,33.87
2019-02-06T22:28:07.217Z,36.40
2019-02-06T22:30:37.595Z,34.87
2019-02-06T22:33:08.418Z,36.83
2019-02-06T22:35:38.483Z,41.30
2019-02-06T22:38:08.930Z,43.57
2019-02-06T22:40:38.825Z,43.43
2019-02-06T22:43:09.138Z,40.80
2019-02-06T22:45:39.222Z,38.10
2019-02-06T22:48:09.169Z,43.90
2019-02-06T22:50:39.192Z,43.97
2019-02-06T22:53:09.370Z,40.03
2019-02-06T22:55:39.757Z,41.50
2019-02-06T22:58:09.910Z,40.80
2019-02-06T23:00:52.450Z,40.67
2019-02-06T23:03:29.660Z,40.37
2019-02-06T23:05:59.613Z,39.57
2019-02-06T23:08:30.397Z,38.23
2019-02-06T23:11:00.949Z,35.83
2019-02-06T23:13:31.058Z,37.50
2019-02-06T23:16:00.972Z,38.53
2019-02-06T23:18:30.929Z,43.70
2019-02-06T23:21:01.100Z,40.63
2019-02-06T23:23:31.115Z,43.97
2019-02-06T23:26:00.976Z,38.43
2019-02-06T23:28:31.099Z,36.37
2019-02-06T23:31:01.411Z,46.80
2019-02-06T23:33:31.378Z,41.27
2019-02-06T23:36:01.648Z,41.87
2019-02-06T23:38:32.159Z,40.10
2019-02-06T23:41:02.199Z,45.07
2019-02-06T23:43:32.299Z,40.77
2019-02-06T23:46:02.359Z,40.63
2019-02-06T23:48:32.705Z,43.27
2019-02-06T23:51:02.799Z,43.73
2019-02-06T23:53:45.111Z,39.73
2019-02-06T23:56:15.123Z,36.30
2019-02-06T23:58:49.512Z,37.60
